sensor_id;sensor_type;location;lat;lon;timestamp;pressure;altitude;pressure_sealevel;temperature;humidity
28289;BME280;15558;50.874;6.964;2023-01-25T00:01:26;103288.75;;;7.34;60.76
28289;BME280;15558;50.874;6.964;2023-01-25T00:03:53;103284.88;;;7.35;60.56
28289;BME280;15558;50.874;6.964;2023-01-25T00:06:24;103277.34;;;7.36;60.58
28289;BME280;15558;50.874;6.964;2023-01-25T00:21:58;103274.81;;;7.09;61.57
28289;BME280;15558;50.874;6.964;2023-01-25T00:24:25;103265.34;;;7.23;61.50
28289;BME280;15558;50.874;6.964;2023-01-25T00:29:27;103278.88;;;7.19;61.04
28289;BME280;15558;50.874;6.964;2023-01-25T00:32:06;103269.63;;;7.32;60.78
28289;BME280;15558;50.874;6.964;2023-01-25T00:34:41;103268.97;;;7.30;61.22
28289;BME280;15558;50.874;6.964;2023-01-25T00:47:26;103247.13;;;7.14;61.63
28289;BME280;15558;50.874;6.964;2023-01-25T00:55:04;103238.50;;;7.15;61.39
28289;BME280;15558;50.874;6.964;2023-01-25T00:57:31;103239.59;;;7.08;61.61
28289;BME280;15558;50.874;6.964;2023-01-25T00:59:59;103232.25;;;7.26;61.24
28289;BME280;15558;50.874;6.964;2023-01-25T01:02:32;103239.59;;;7.14;61.85
28289;BME280;15558;50.874;6.964;2023-01-25T01:05:03;103234.00;;;7.08;61.86
28289;BME280;15558;50.874;6.964;2023-01-25T01:12:41;103228.63;;;7.13;61.89
28289;BME280;15558;50.874;6.964;2023-01-25T01:15:13;103230.09;;;7.22;61.74
28289;BME280;15558;50.874;6.964;2023-01-25T01:17:44;103223.47;;;7.23;61.60
28289;BME280;15558;50.874;6.964;2023-01-25T01:20:12;103229.44;;;7.26;61.44
28289;BME280;15558;50.874;6.964;2023-01-25T01:22:38;103231.63;;;7.24;61.80
28289;BME280;15558;50.874;6.964;2023-01-25T01:25:08;103224.94;;;7.25;61.88
28289;BME280;15558;50.874;6.964;2023-01-25T01:27:38;103227.94;;;7.24;61.97
28289;BME280;15558;50.874;6.964;2023-01-25T01:30:07;103234.41;;;7.18;62.14
28289;BME280;15558;50.874;6.964;2023-01-25T01:32:46;103234.84;;;7.15;62.15
28289;BME280;15558;50.874;6.964;2023-01-25T01:35:17;103237.22;;;7.11;62.21
28289;BME280;15558;50.874;6.964;2023-01-25T01:38:00;103234.66;;;7.10;62.41
28289;BME280;15558;50.874;6.964;2023-01-25T01:40:27;103235.31;;;7.12;62.44
28289;BME280;15558;50.874;6.964;2023-01-25T01:43:03;103230.75;;;7.17;62.24
28289;BME280;15558;50.874;6.964;2023-01-25T01:58:35;103225.22;;;6.92;62.99
28289;BME280;15558;50.874;6.964;2023-01-25T02:01:03;103223.50;;;6.84;63.20
28289;BME280;15558;50.874;6.964;2023-01-25T02:03:30;103227.16;;;6.91;63.22
28289;BME280;15558;50.874;6.964;2023-01-25T02:05:59;103232.28;;;7.00;63.11
28289;BME280;15558;50.874;6.964;2023-01-25T02:08:31;103219.63;;;6.92;63.29
28289;BME280;15558;50.874;6.964;2023-01-25T02:11:03;103227.38;;;6.96;63.17
28289;BME280;15558;50.874;6.964;2023-01-25T02:13:30;103229.50;;;6.94;63.10
28289;BME280;15558;50.874;6.964;2023-01-25T02:16:09;103219.00;;;6.96;63.17
28289;BME280;15558;50.874;6.964;2023-01-25T02:18:43;103221.78;;;6.96;63.19
28289;BME280;15558;50.874;6.964;2023-01-25T02:21:10;103223.94;;;6.94;63.23
28289;BME280;15558;50.874;6.964;2023-01-25T02:31:26;103213.84;;;6.93;63.20
28289;BME280;15558;50.874;6.964;2023-01-25T02:33:55;103216.22;;;6.90;63.52
28289;BME280;15558;50.874;6.964;2023-01-25T02:36:29;103206.53;;;6.92;63.20
28289;BME280;15558;50.874;6.964;2023-01-25T02:39:01;103210.16;;;6.99;63.20
28289;BME280;15558;50.874;6.964;2023-01-25T02:41:34;103211.91;;;6.94;63.36
28289;BME280;15558;50.874;6.964;2023-01-25T02:44:03;103207.59;;;6.85;63.52
28289;BME280;15558;50.874;6.964;2023-01-25T02:54:18;103196.44;;;6.85;63.44
28289;BME280;15558;50.874;6.964;2023-01-25T02:56:49;103193.03;;;6.83;63.80
28289;BME280;15558;50.874;6.964;2023-01-25T02:59:19;103191.72;;;6.85;63.64
28289;BME280;15558;50.874;6.964;2023-01-25T03:04:21;103196.03;;;6.81;63.73
28289;BME280;15558;50.874;6.964;2023-01-25T03:06:58;103203.31;;;6.82;63.97
28289;BME280;15558;50.874;6.964;2023-01-25T03:09:26;103201.41;;;6.83;64.00
28289;BME280;15558;50.874;6.964;2023-01-25T03:11:53;103194.31;;;6.80;64.17
28289;BME280;15558;50.874;6.964;2023-01-25T03:22:06;103190.66;;;6.73;64.25
28289;BME280;15558;50.874;6.964;2023-01-25T03:24:34;103191.09;;;6.64;64.40
28289;BME280;15558;50.874;6.964;2023-01-25T03:27:00;103187.22;;;6.78;64.00
28289;BME280;15558;50.874;6.964;2023-01-25T03:34:47;103195.38;;;6.86;63.82
28289;BME280;15558;50.874;6.964;2023-01-25T03:37:14;103189.59;;;6.87;63.86
28289;BME280;15558;50.874;6.964;2023-01-25T03:39:42;103197.75;;;6.63;64.28
28289;BME280;15558;50.874;6.964;2023-01-25T03:42:09;103198.84;;;6.75;64.43
28289;BME280;15558;50.874;6.964;2023-01-25T03:44:36;103196.91;;;6.69;64.44
28289;BME280;15558;50.874;6.964;2023-01-25T03:47:02;103196.03;;;6.81;64.28
28289;BME280;15558;50.874;6.964;2023-01-25T03:49:33;103187.88;;;6.80;64.34
28289;BME280;15558;50.874;6.964;2023-01-25T03:57:20;103184.88;;;6.68;64.48
28289;BME280;15558;50.874;6.964;2023-01-25T03:59:57;103178.84;;;6.78;64.42
28289;BME280;15558;50.874;6.964;2023-01-25T04:02:46;103187.00;;;6.79;64.17
28289;BME280;15558;50.874;6.964;2023-01-25T04:05:44;103179.69;;;6.78;64.30
28289;BME280;15558;50.874;6.964;2023-01-25T04:08:16;103179.28;;;6.75;64.72
28289;BME280;15558;50.874;6.964;2023-01-25T04:11:06;103177.16;;;6.70;64.56
28289;BME280;15558;50.874;6.964;2023-01-25T04:13:58;103178.22;;;6.69;64.81
28289;BME280;15558;50.874;6.964;2023-01-25T04:16:29;103166.63;;;6.79;64.59
28289;BME280;15558;50.874;6.964;2023-01-25T04:19:37;103172.84;;;6.81;64.22
28289;BME280;15558;50.874;6.964;2023-01-25T04:38:47;103135.50;;;6.63;64.78
28289;BME280;15558;50.874;6.964;2023-01-25T04:41:17;103130.97;;;6.68;64.49
28289;BME280;15558;50.874;6.964;2023-01-25T04:44:09;103135.91;;;6.66;64.55
28289;BME280;15558;50.874;6.964;2023-01-25T04:47:15;103129.72;;;6.51;65.10
28289;BME280;15558;50.874;6.964;2023-01-25T04:50:42;103132.50;;;6.58;65.00
28289;BME280;15558;50.874;6.964;2023-01-25T04:53:53;103133.78;;;6.62;64.88
28289;BME280;15558;50.874;6.964;2023-01-25T04:56:48;103126.50;;;6.67;64.70
28289;BME280;15558;50.874;6.964;2023-01-25T04:59:46;103134.00;;;6.66;64.67
28289;BME280;15558;50.874;6.964;2023-01-25T05:03:16;103126.69;;;6.65;64.65
28289;BME280;15558;50.874;6.964;2023-01-25T05:05:50;103123.91;;;6.72;64.50
28289;BME280;15558;50.874;6.964;2023-01-25T05:08:20;103122.59;;;6.74;64.48
28289;BME280;15558;50.874;6.964;2023-01-25T05:16:14;103119.84;;;6.62;64.86
28289;BME280;15558;50.874;6.964;2023-01-25T05:18:46;103123.50;;;6.68;64.88
28289;BME280;15558;50.874;6.964;2023-01-25T05:21:13;103113.19;;;6.63;65.05
28289;BME280;15558;50.874;6.964;2023-01-25T05:23:58;103110.19;;;6.70;64.52
28289;BME280;15558;50.874;6.964;2023-01-25T05:26:26;103113.59;;;6.60;65.07
28289;BME280;15558;50.874;6.964;2023-01-25T05:29:10;103109.75;;;6.61;64.97
28289;BME280;15558;50.874;6.964;2023-01-25T05:31:37;103111.47;;;6.62;65.03
28289;BME280;15558;50.874;6.964;2023-01-25T05:34:08;103109.56;;;6.62;64.80
28289;BME280;15558;50.874;6.964;2023-01-25T05:36:34;103108.66;;;6.68;64.74
28289;BME280;15558;50.874;6.964;2023-01-25T05:39:03;103102.88;;;6.63;64.91
28289;BME280;15558;50.874;6.964;2023-01-25T05:41:31;103096.00;;;6.65;64.85
28289;BME280;15558;50.874;6.964;2023-01-25T05:44:00;103101.81;;;6.70;64.80
28289;BME280;15558;50.874;6.964;2023-01-25T05:46:27;103094.97;;;6.60;64.78
28289;BME280;15558;50.874;6.964;2023-01-25T05:49:05;103096.22;;;6.70;64.64
28289;BME280;15558;50.874;6.964;2023-01-25T05:51:34;103100.72;;;6.71;64.51
28289;BME280;15558;50.874;6.964;2023-01-25T05:54:03;103100.72;;;6.71;64.68
28289;BME280;15558;50.874;6.964;2023-01-25T05:56:31;103096.84;;;6.66;64.88
28289;BME280;15558;50.874;6.964;2023-01-25T05:59:00;103097.50;;;6.68;64.71
28289;BME280;15558;50.874;6.964;2023-01-25T06:01:31;103100.53;;;6.54;65.04
28289;BME280;15558;50.874;6.964;2023-01-25T06:04:06;103101.59;;;6.65;64.89
28289;BME280;15558;50.874;6.964;2023-01-25T06:06:36;103098.78;;;6.65;64.79
28289;BME280;15558;50.874;6.964;2023-01-25T06:09:04;103090.63;;;6.64;65.14
28289;BME280;15558;50.874;6.964;2023-01-25T06:11:31;103094.72;;;6.62;65.18
28289;BME280;15558;50.874;6.964;2023-01-25T06:16:34;103100.53;;;6.66;65.15
28289;BME280;15558;50.874;6.964;2023-01-25T06:19:35;103090.41;;;6.72;64.84
28289;BME280;15558;50.874;6.964;2023-01-25T06:22:04;103093.84;;;6.67;64.99
28289;BME280;15558;50.874;6.964;2023-01-25T06:24:47;103084.63;;;6.67;64.86
28289;BME280;15558;50.874;6.964;2023-01-25T06:27:46;103090.03;;;6.62;65.15
28289;BME280;15558;50.874;6.964;2023-01-25T06:30:49;103080.13;;;6.60;65.32
28289;BME280;15558;50.874;6.964;2023-01-25T06:33:26;103078.19;;;6.66;65.16
28289;BME280;15558;50.874;6.964;2023-01-25T06:36:25;103067.47;;;6.63;65.13
28289;BME280;15558;50.874;6.964;2023-01-25T06:39:41;103073.69;;;6.65;65.06
28289;BME280;15558;50.874;6.964;2023-01-25T06:42:50;103070.25;;;6.63;65.09
28289;BME280;15558;50.874;6.964;2023-01-25T06:46:22;103072.84;;;6.65;65.10
28289;BME280;15558;50.874;6.964;2023-01-25T06:49:12;103076.06;;;6.62;65.25
28289;BME280;15558;50.874;6.964;2023-01-25T06:54:26;103078.41;;;6.71;64.83
28289;BME280;15558;50.874;6.964;2023-01-25T06:56:55;103081.41;;;6.70;64.84
28289;BME280;15558;50.874;6.964;2023-01-25T06:59:33;103084.19;;;6.63;65.00
28289;BME280;15558;50.874;6.964;2023-01-25T07:06:18;103096.47;;;6.56;65.48
28289;BME280;15558;50.874;6.964;2023-01-25T07:17:27;103091.28;;;6.60;65.43
28289;BME280;15558;50.874;6.964;2023-01-25T07:20:14;103084.03;;;6.52;65.52
28289;BME280;15558;50.874;6.964;2023-01-25T07:23:33;103089.38;;;6.41;66.22
28289;BME280;15558;50.874;6.964;2023-01-25T07:26:46;103085.31;;;6.50;65.68
28289;BME280;15558;50.874;6.964;2023-01-25T07:33:07;103086.19;;;6.44;66.30
28289;BME280;15558;50.874;6.964;2023-01-25T07:35:34;103090.88;;;6.56;65.90
28289;BME280;15558;50.874;6.964;2023-01-25T07:38:09;103085.94;;;6.58;65.68
28289;BME280;15558;50.874;6.964;2023-01-25T07:40:39;103084.41;;;6.56;65.98
28289;BME280;15558;50.874;6.964;2023-01-25T07:43:14;103084.03;;;6.52;66.08
28289;BME280;15558;50.874;6.964;2023-01-25T07:45:50;103075.84;;;6.57;65.81
28289;BME280;15558;50.874;6.964;2023-01-25T07:48:18;103078.44;;;6.59;65.55
28289;BME280;15558;50.874;6.964;2023-01-25T07:53:40;103079.75;;;6.50;65.88
28289;BME280;15558;50.874;6.964;2023-01-25T07:56:43;103079.28;;;6.53;65.83
28289;BME280;15558;50.874;6.964;2023-01-25T07:59:33;103076.09;;;6.43;66.01
28289;BME280;15558;50.874;6.964;2023-01-25T08:02:39;103081.00;;;6.54;66.04
28289;BME280;15558;50.874;6.964;2023-01-25T08:05:26;103080.13;;;6.53;66.14
28289;BME280;15558;50.874;6.964;2023-01-25T08:08:40;103085.53;;;6.48;66.25
28289;BME280;15558;50.874;6.964;2023-01-25T08:11:34;103084.25;;;6.44;66.65
28289;BME280;15558;50.874;6.964;2023-01-25T08:14:25;103078.88;;;6.43;66.29
28289;BME280;15558;50.874;6.964;2023-01-25T08:17:13;103078.47;;;6.39;66.40
28289;BME280;15558;50.874;6.964;2023-01-25T08:20:22;103081.91;;;6.41;66.62
28289;BME280;15558;50.874;6.964;2023-01-25T08:23:09;103077.56;;;6.45;66.50
28289;BME280;15558;50.874;6.964;2023-01-25T08:28:20;103083.59;;;6.49;66.38
28289;BME280;15558;50.874;6.964;2023-01-25T08:31:16;103078.00;;;6.55;66.16
28289;BME280;15558;50.874;6.964;2023-01-25T08:34:03;103075.44;;;6.47;66.63
28289;BME280;15558;50.874;6.964;2023-01-25T08:39:17;103070.72;;;6.48;66.44
28289;BME280;15558;50.874;6.964;2023-01-25T08:42:02;103063.22;;;6.42;66.89
28289;BME280;15558;50.874;6.964;2023-01-25T08:44:59;103068.56;;;6.43;67.04
28289;BME280;15558;50.874;6.964;2023-01-25T08:47:42;103056.34;;;6.44;66.79
28289;BME280;15558;50.874;6.964;2023-01-25T09:34:38;103037.25;;;6.48;66.71
28289;BME280;15558;50.874;6.964;2023-01-25T09:48:35;103025.00;;;6.49;66.94
28289;BME280;15558;50.874;6.964;2023-01-25T09:51:13;103025.84;;;6.49;66.98
28289;BME280;15558;50.874;6.964;2023-01-25T09:53:55;103022.69;;;6.39;67.33
28289;BME280;15558;50.874;6.964;2023-01-25T09:59:05;103012.78;;;6.43;67.03
28289;BME280;15558;50.874;6.964;2023-01-25T10:02:04;103012.78;;;6.43;67.03
28289;BME280;15558;50.874;6.964;2023-01-25T10:04:53;103012.16;;;6.41;66.99
28289;BME280;15558;50.874;6.964;2023-01-25T10:07:49;103002.91;;;6.41;67.09
28289;BME280;15558;50.874;6.964;2023-01-25T10:24:13;102995.16;;;6.49;66.95
28289;BME280;15558;50.874;6.964;2023-01-25T10:26:50;102998.63;;;6.45;67.16
28289;BME280;15558;50.874;6.964;2023-01-25T10:45:10;102966.25;;;6.37;67.26
28289;BME280;15558;50.874;6.964;2023-01-25T10:48:07;102956.13;;;6.43;67.20
28289;BME280;15558;50.874;6.964;2023-01-25T10:58:55;102960.25;;;6.34;67.75
28289;BME280;15558;50.874;6.964;2023-01-25T11:04:29;102948.88;;;6.42;67.64
28289;BME280;15558;50.874;6.964;2023-01-25T11:07:01;102936.59;;;6.49;67.50
28289;BME280;15558;50.874;6.964;2023-01-25T11:15:25;102932.34;;;6.40;67.89
28289;BME280;15558;50.874;6.964;2023-01-25T11:18:12;102934.97;;;6.29;68.23
28289;BME280;15558;50.874;6.964;2023-01-25T11:21:21;102928.72;;;6.33;68.11
28289;BME280;15558;50.874;6.964;2023-01-25T11:26:43;102920.97;;;6.42;67.59
28289;BME280;15558;50.874;6.964;2023-01-25T11:53:31;102873.78;;;6.40;68.25
28289;BME280;15558;50.874;6.964;2023-01-25T12:39:07;102756.69;;;6.34;68.77
28289;BME280;15558;50.874;6.964;2023-01-25T12:41:59;102751.56;;;6.31;69.03
28289;BME280;15558;50.874;6.964;2023-01-25T12:44:53;102742.56;;;6.29;69.02
28289;BME280;15558;50.874;6.964;2023-01-25T12:50:11;102733.06;;;6.36;68.71
28289;BME280;15558;50.874;6.964;2023-01-25T12:55:15;102730.72;;;6.33;68.77
28289;BME280;15558;50.874;6.964;2023-01-25T12:58:00;102726.84;;;6.34;68.82
28289;BME280;15558;50.874;6.964;2023-01-25T13:11:59;102704.50;;;6.41;68.85
28289;BME280;15558;50.874;6.964;2023-01-25T13:14:42;102692.28;;;6.42;68.90
28289;BME280;15558;50.874;6.964;2023-01-25T13:22:54;102680.47;;;6.40;68.90
28289;BME280;15558;50.874;6.964;2023-01-25T13:29:41;102657.31;;;6.39;69.14
28289;BME280;15558;50.874;6.964;2023-01-25T13:32:14;102642.91;;;6.42;69.05
28289;BME280;15558;50.874;6.964;2023-01-25T13:34:59;102650.81;;;6.45;68.95
28289;BME280;15558;50.874;6.964;2023-01-25T13:37:26;102643.75;;;6.43;69.20
28289;BME280;15558;50.874;6.964;2023-01-25T13:45:50;102633.50;;;6.37;69.13
28289;BME280;15558;50.874;6.964;2023-01-25T13:48:56;102630.34;;;6.33;69.35
28289;BME280;15558;50.874;6.964;2023-01-25T13:51:25;102629.47;;;6.33;69.30
28289;BME280;15558;50.874;6.964;2023-01-25T13:53:56;102625.97;;;6.44;69.16
28289;BME280;15558;50.874;6.964;2023-01-25T13:57:01;102627.88;;;6.43;68.92
28289;BME280;15558;50.874;6.964;2023-01-25T14:02:58;102616.97;;;6.42;68.78
28289;BME280;15558;50.874;6.964;2023-01-25T14:18:46;102608.81;;;6.40;69.08
28289;BME280;15558;50.874;6.964;2023-01-25T14:22:11;102609.84;;;6.46;68.76
28289;BME280;15558;50.874;6.964;2023-01-25T14:28:00;102602.78;;;6.43;69.04
28289;BME280;15558;50.874;6.964;2023-01-25T14:31:05;102595.97;;;6.39;69.08
28289;BME280;15558;50.874;6.964;2023-01-25T14:33:39;102590.25;;;6.28;69.45
28289;BME280;15558;50.874;6.964;2023-01-25T14:44:24;102588.03;;;6.36;69.28
28289;BME280;15558;50.874;6.964;2023-01-25T14:49:47;102589.78;;;6.37;69.33
28289;BME280;15558;50.874;6.964;2023-01-25T15:02:38;102581.47;;;6.31;69.23
28289;BME280;15558;50.874;6.964;2023-01-25T15:44:43;102529.44;;;6.19;69.76
28289;BME280;15558;50.874;6.964;2023-01-25T15:47:28;102525.78;;;6.18;69.81
28289;BME280;15558;50.874;6.964;2023-01-25T15:58:32;102524.81;;;6.30;69.30
28289;BME280;15558;50.874;6.964;2023-01-25T16:01:07;102518.63;;;6.28;69.23
28289;BME280;15558;50.874;6.964;2023-01-25T16:03:35;102510.72;;;6.26;69.47
28289;BME280;15558;50.874;6.964;2023-01-25T16:06:02;102505.53;;;6.29;69.60
28289;BME280;15558;50.874;6.964;2023-01-25T16:08:29;102509.25;;;6.23;69.60
28289;BME280;15558;50.874;6.964;2023-01-25T16:10:57;102517.16;;;6.26;69.75
28289;BME280;15558;50.874;6.964;2023-01-25T16:13:39;102514.19;;;6.21;69.89
28289;BME280;15558;50.874;6.964;2023-01-25T16:16:17;102511.56;;;6.26;69.86
28289;BME280;15558;50.874;6.964;2023-01-25T16:21:19;102515.72;;;6.17;69.44
28289;BME280;15558;50.874;6.964;2023-01-25T16:23:47;102504.81;;;6.16;70.03
28289;BME280;15558;50.874;6.964;2023-01-25T16:26:17;102497.59;;;6.08;70.22
28289;BME280;15558;50.874;6.964;2023-01-25T16:28:50;102509.94;;;6.19;70.05
28289;BME280;15558;50.874;6.964;2023-01-25T16:31:58;102510.53;;;6.21;70.00
28289;BME280;15558;50.874;6.964;2023-01-25T16:34:27;102512.09;;;6.17;70.29
28289;BME280;15558;50.874;6.964;2023-01-25T16:47:20;102491.34;;;6.13;70.31
28289;BME280;15558;50.874;6.964;2023-01-25T16:49:51;102490.72;;;6.11;70.38
28289;BME280;15558;50.874;6.964;2023-01-25T16:52:38;102505.50;;;6.11;70.41
28289;BME280;15558;50.874;6.964;2023-01-25T17:18:35;102476.84;;;6.04;70.27
28289;BME280;15558;50.874;6.964;2023-01-25T17:21:17;102480.63;;;6.10;70.10
28289;BME280;15558;50.874;6.964;2023-01-25T17:24:02;102488.22;;;6.03;69.95
28289;BME280;15558;50.874;6.964;2023-01-25T17:34:22;102480.28;;;6.00;70.20
28289;BME280;15558;50.874;6.964;2023-01-25T17:37:03;102492.06;;;6.02;70.15
28289;BME280;15558;50.874;6.964;2023-01-25T17:40:10;102481.59;;;5.97;70.21
28289;BME280;15558;50.874;6.964;2023-01-25T17:43:03;102485.47;;;5.96;70.12
28289;BME280;15558;50.874;6.964;2023-01-25T18:09:55;102453.84;;;5.85;70.13
28289;BME280;15558;50.874;6.964;2023-01-25T18:12:23;102455.09;;;5.89;69.80
28289;BME280;15558;50.874;6.964;2023-01-25T18:15:07;102452.22;;;5.77;69.93
28289;BME280;15558;50.874;6.964;2023-01-25T18:17:47;102455.66;;;5.73;70.07
28289;BME280;15558;50.874;6.964;2023-01-25T18:20:47;102460.81;;;5.76;69.99
28289;BME280;15558;50.874;6.964;2023-01-25T18:23:14;102450.53;;;5.70;70.27
28289;BME280;15558;50.874;6.964;2023-01-25T18:25:49;102456.53;;;5.73;69.73
28289;BME280;15558;50.874;6.964;2023-01-25T18:28:25;102453.75;;;5.73;69.71
28289;BME280;15558;50.874;6.964;2023-01-25T18:31:13;102448.19;;;5.73;70.09
28289;BME280;15558;50.874;6.964;2023-01-25T18:33:47;102455.88;;;5.71;69.73
28289;BME280;15558;50.874;6.964;2023-01-25T18:36:13;102455.47;;;5.68;69.17
28289;BME280;15558;50.874;6.964;2023-01-25T18:51:38;102446.75;;;5.58;69.69
28289;BME280;15558;50.874;6.964;2023-01-25T18:54:09;102445.22;;;5.62;69.75
28289;BME280;15558;50.874;6.964;2023-01-25T18:56:41;102448.28;;;5.54;69.49
28289;BME280;15558;50.874;6.964;2023-01-25T18:59:13;102445.75;;;5.53;69.74
28289;BME280;15558;50.874;6.964;2023-01-25T19:04:52;102433.34;;;5.49;69.33
28289;BME280;15558;50.874;6.964;2023-01-25T19:07:33;102429.25;;;5.51;69.68
28289;BME280;15558;50.874;6.964;2023-01-25T19:10:06;102418.13;;;5.51;69.34
28289;BME280;15558;50.874;6.964;2023-01-25T19:12:56;102419.06;;;5.39;69.63
28289;BME280;15558;50.874;6.964;2023-01-25T19:15:27;102419.50;;;5.42;69.10
28289;BME280;15558;50.874;6.964;2023-01-25T19:18:17;102413.03;;;5.42;69.31
28289;BME280;15558;50.874;6.964;2023-01-25T19:21:07;102401.91;;;5.42;69.90
28289;BME280;15558;50.874;6.964;2023-01-25T19:24:07;102407.53;;;5.35;69.83
28289;BME280;15558;50.874;6.964;2023-01-25T19:26:52;102412.03;;;5.36;69.58
28289;BME280;15558;50.874;6.964;2023-01-25T19:29:19;102406.69;;;5.35;69.48
28289;BME280;15558;50.874;6.964;2023-01-25T19:34:59;102390.19;;;5.33;68.97
28289;BME280;15558;50.874;6.964;2023-01-25T19:37:46;102380.09;;;5.39;68.89
28289;BME280;15558;50.874;6.964;2023-01-25T19:40:34;102370.28;;;5.36;69.32
28289;BME280;15558;50.874;6.964;2023-01-25T19:43:25;102372.66;;;5.33;69.23
28289;BME280;15558;50.874;6.964;2023-01-25T19:46:14;102371.19;;;5.30;69.68
28289;BME280;15558;50.874;6.964;2023-01-25T19:48:44;102366.47;;;5.31;69.47
28289;BME280;15558;50.874;6.964;2023-01-25T19:51:18;102362.84;;;5.30;69.25
28289;BME280;15558;50.874;6.964;2023-01-25T19:53:54;102354.53;;;5.24;69.25
28289;BME280;15558;50.874;6.964;2023-01-25T19:56:31;102346.97;;;5.31;69.43
28289;BME280;15558;50.874;6.964;2023-01-25T19:59:32;102343.75;;;5.34;69.05
28289;BME280;15558;50.874;6.964;2023-01-25T20:02:08;102328.31;;;5.31;68.81
28289;BME280;15558;50.874;6.964;2023-01-25T20:05:12;102315.34;;;5.25;68.88
28289;BME280;15558;50.874;6.964;2023-01-25T20:07:43;102322.75;;;5.31;68.82
28289;BME280;15558;50.874;6.964;2023-01-25T20:10:15;102324.53;;;5.26;68.80
28289;BME280;15558;50.874;6.964;2023-01-25T20:12:53;102323.22;;;5.28;68.88
28289;BME280;15558;50.874;6.964;2023-01-25T20:15:22;102317.66;;;5.28;68.93
28289;BME280;15558;50.874;6.964;2023-01-25T20:17:51;102308.69;;;5.26;69.31
28289;BME280;15558;50.874;6.964;2023-01-25T20:20:28;102310.38;;;5.27;69.43
28289;BME280;15558;50.874;6.964;2023-01-25T20:23:14;102301.81;;;5.29;69.03
28289;BME280;15558;50.874;6.964;2023-01-25T20:25:42;102304.22;;;5.25;68.96
28289;BME280;15558;50.874;6.964;2023-01-25T20:28:15;102297.72;;;5.31;69.20
28289;BME280;15558;50.874;6.964;2023-01-25T20:30:45;102302.22;;;5.32;69.04
28289;BME280;15558;50.874;6.964;2023-01-25T20:33:23;102303.81;;;5.22;69.03
28289;BME280;15558;50.874;6.964;2023-01-25T20:35:59;102288.09;;;5.27;69.70
28289;BME280;15558;50.874;6.964;2023-01-25T20:38:35;102298.03;;;5.23;68.93
28289;BME280;15558;50.874;6.964;2023-01-25T20:41:04;102296.31;;;5.22;69.71
28289;BME280;15558;50.874;6.964;2023-01-25T20:43:31;102304.50;;;5.18;69.26
28289;BME280;15558;50.874;6.964;2023-01-25T20:45:58;102296.78;;;5.20;69.70
28289;BME280;15558;50.874;6.964;2023-01-25T20:48:26;102295.91;;;5.19;69.77
28289;BME280;15558;50.874;6.964;2023-01-25T20:50:58;102288.84;;;5.17;69.60
28289;BME280;15558;50.874;6.964;2023-01-25T20:53:25;102288.22;;;5.15;69.18
28289;BME280;15558;50.874;6.964;2023-01-25T20:55:56;102282.66;;;5.15;69.40
28289;BME280;15558;50.874;6.964;2023-01-25T20:58:23;102283.13;;;5.12;69.39
28289;BME280;15558;50.874;6.964;2023-01-25T21:00:55;102278.41;;;5.12;68.96
28289;BME280;15558;50.874;6.964;2023-01-25T21:03:22;102281.59;;;5.16;69.03
28289;BME280;15558;50.874;6.964;2023-01-25T21:05:52;102288.22;;;5.15;69.31
28289;BME280;15558;50.874;6.964;2023-01-25T21:08:34;102284.81;;;5.13;69.57
28289;BME280;15558;50.874;6.964;2023-01-25T21:11:00;102283.53;;;5.15;69.07
28289;BME280;15558;50.874;6.964;2023-01-25T21:13:29;102272.84;;;5.12;69.05
28289;BME280;15558;50.874;6.964;2023-01-25T21:16:14;102273.69;;;5.13;69.13
28289;BME280;15558;50.874;6.964;2023-01-25T21:18:44;102257.00;;;5.13;68.93
28289;BME280;15558;50.874;6.964;2023-01-25T21:21:12;102259.34;;;5.16;68.79
28289;BME280;15558;50.874;6.964;2023-01-25T21:23:39;102253.16;;;5.14;68.88
28289;BME280;15558;50.874;6.964;2023-01-25T21:26:06;102254.84;;;5.15;68.59
28289;BME280;15558;50.874;6.964;2023-01-25T21:28:34;102235.91;;;5.05;69.08
28289;BME280;15558;50.874;6.964;2023-01-25T21:31:15;102236.47;;;5.14;68.65
28289;BME280;15558;50.874;6.964;2023-01-25T21:33:41;102229.09;;;5.19;68.54
28289;BME280;15558;50.874;6.964;2023-01-25T21:36:33;102234.03;;;5.17;68.72
28289;BME280;15558;50.874;6.964;2023-01-25T21:39:10;102245.19;;;5.17;69.01
28289;BME280;15558;50.874;6.964;2023-01-25T21:41:39;102240.22;;;5.19;69.00
28289;BME280;15558;50.874;6.964;2023-01-25T21:44:05;102243.28;;;5.18;68.46
28289;BME280;15558;50.874;6.964;2023-01-25T21:46:50;102237.44;;;5.19;68.88
28289;BME280;15558;50.874;6.964;2023-01-25T21:49:21;102221.44;;;5.15;68.83
28289;BME280;15558;50.874;6.964;2023-01-25T21:52:05;102243.03;;;5.19;68.54
28289;BME280;15558;50.874;6.964;2023-01-25T21:54:34;102235.69;;;5.24;68.46
28289;BME280;15558;50.874;6.964;2023-01-25T21:57:07;102232.97;;;5.18;68.76
28289;BME280;15558;50.874;6.964;2023-01-25T21:59:37;102237.16;;;5.27;68.43
28289;BME280;15558;50.874;6.964;2023-01-25T22:02:09;102246.69;;;5.20;68.81
28289;BME280;15558;50.874;6.964;2023-01-25T22:04:38;102242.47;;;5.11;69.23
28289;BME280;15558;50.874;6.964;2023-01-25T22:07:19;102244.63;;;5.09;69.02
28289;BME280;15558;50.874;6.964;2023-01-25T22:09:57;102237.84;;;5.05;69.10
28289;BME280;15558;50.874;6.964;2023-01-25T22:15:19;102245.72;;;5.08;68.79
28289;BME280;15558;50.874;6.964;2023-01-25T22:17:45;102247.88;;;5.06;68.98
28289;BME280;15558;50.874;6.964;2023-01-25T22:20:16;102260.69;;;5.07;68.82
28289;BME280;15558;50.874;6.964;2023-01-25T22:22:42;102256.69;;;5.03;69.18
28289;BME280;15558;50.874;6.964;2023-01-25T22:25:13;102255.81;;;5.02;69.19
28289;BME280;15558;50.874;6.964;2023-01-25T22:30:31;102252.66;;;4.99;69.06
28289;BME280;15558;50.874;6.964;2023-01-25T22:33:03;102250.31;;;4.96;69.07
28289;BME280;15558;50.874;6.964;2023-01-25T22:35:32;102254.34;;;5.00;68.29
28289;BME280;15558;50.874;6.964;2023-01-25T22:37:58;102256.50;;;4.98;69.11
28289;BME280;15558;50.874;6.964;2023-01-25T22:40:30;102256.09;;;4.94;69.06
28289;BME280;15558;50.874;6.964;2023-01-25T22:43:03;102239.19;;;4.96;68.16